sensor_id;sensor_type;location;lat;lon;timestamp;temperature;humidity
47765;DHT22;33529;49.242;8.670;2022-10-16T00:01:13;16.00;99.90
47765;DHT22;33529;49.242;8.670;2022-10-16T00:03:42;16.00;99.90
47765;DHT22;33529;49.242;8.670;2022-10-16T00:06:10;16.00;99.90
47765;DHT22;33529;49.242;8.670;2022-10-16T00:08:37;16.00;99.90
47765;DHT22;33529;49.242;8.670;2022-10-16T00:11:15;16.00;99.90
47765;DHT22;33529;49.242;8.670;2022-10-16T00:13:44;16.10;99.90
47765;DHT22;33529;49.242;8.670;2022-10-16T00:16:12;16.10;99.90
47765;DHT22;33529;49.242;8.670;2022-10-16T00:18:40;16.20;99.90
47765;DHT22;33529;49.242;8.670;2022-10-16T00:21:19;16.20;99.90
47765;DHT22;33529;49.242;8.670;2022-10-16T00:23:46;16.10;99.90
47765;DHT22;33529;49.242;8.670;2022-10-16T00:26:15;16.20;99.90
47765;DHT22;33529;49.242;8.670;2022-10-16T00:28:42;16.20;99.90
47765;DHT22;33529;49.242;8.670;2022-10-16T00:31:11;16.20;99.90
47765;DHT22;33529;49.242;8.670;2022-10-16T00:33:39;16.20;99.90
47765;DHT22;33529;49.242;8.670;2022-10-16T00:36:09;16.20;99.90
47765;DHT22;33529;49.242;8.670;2022-10-16T00:38:36;16.10;99.90
47765;DHT22;33529;49.242;8.670;2022-10-16T00:41:09;16.10;99.90
47765;DHT22;33529;49.242;8.670;2022-10-16T00:43:51;16.10;99.90
47765;DHT22;33529;49.242;8.670;2022-10-16T00:48:57;16.10;99.90
47765;DHT22;33529;49.242;8.670;2022-10-16T00:51:39;16.10;99.90
47765;DHT22;33529;49.242;8.670;2022-10-16T00:54:16;16.10;99.90
47765;DHT22;33529;49.242;8.670;2022-10-16T00:56:45;16.10;99.90
47765;DHT22;33529;49.242;8.670;2022-10-16T00:59:19;16.00;99.90
47765;DHT22;33529;49.242;8.670;2022-10-16T01:01:47;16.00;99.90
47765;DHT22;33529;49.242;8.670;2022-10-16T01:04:14;16.00;99.90
47765;DHT22;33529;49.242;8.670;2022-10-16T01:06:58;15.90;99.90
47765;DHT22;33529;49.242;8.670;2022-10-16T01:09:37;16.00;99.90
47765;DHT22;33529;49.242;8.670;2022-10-16T01:12:32;16.10;99.90
47765;DHT22;33529;49.242;8.670;2022-10-16T01:17:35;16.10;99.90
47765;DHT22;33529;49.242;8.670;2022-10-16T01:20:11;16.10;99.90
47765;DHT22;33529;49.242;8.670;2022-10-16T01:25:56;16.10;99.90
47765;DHT22;33529;49.242;8.670;2022-10-16T01:28:29;16.10;99.90
47765;DHT22;33529;49.242;8.670;2022-10-16T01:31:00;16.20;99.90
47765;DHT22;33529;49.242;8.670;2022-10-16T01:33:40;16.20;99.90
47765;DHT22;33529;49.242;8.670;2022-10-16T01:36:31;16.10;99.90
47765;DHT22;33529;49.242;8.670;2022-10-16T01:39:01;16.10;99.90
47765;DHT22;33529;49.242;8.670;2022-10-16T01:41:33;16.10;99.90
47765;DHT22;33529;49.242;8.670;2022-10-16T01:44:18;16.10;99.90
47765;DHT22;33529;49.242;8.670;2022-10-16T01:46:48;16.10;99.90
47765;DHT22;33529;49.242;8.670;2022-10-16T01:49:17;16.10;99.90
47765;DHT22;33529;49.242;8.670;2022-10-16T01:51:47;16.20;99.90
47765;DHT22;33529;49.242;8.670;2022-10-16T01:54:18;16.10;99.90
47765;DHT22;33529;49.242;8.670;2022-10-16T01:56:48;16.10;99.90
47765;DHT22;33529;49.242;8.670;2022-10-16T01:59:19;16.10;99.90
47765;DHT22;33529;49.242;8.670;2022-10-16T02:01:53;16.00;99.90
47765;DHT22;33529;49.242;8.670;2022-10-16T02:04:32;16.00;99.90
47765;DHT22;33529;49.242;8.670;2022-10-16T02:06:59;16.10;99.90
47765;DHT22;33529;49.242;8.670;2022-10-16T02:09:27;16.10;99.90
47765;DHT22;33529;49.242;8.670;2022-10-16T02:11:55;16.10;99.90
47765;DHT22;33529;49.242;8.670;2022-10-16T02:14:23;16.10;99.90
47765;DHT22;33529;49.242;8.670;2022-10-16T02:16:53;16.10;99.90
47765;DHT22;33529;49.242;8.670;2022-10-16T02:19:20;16.10;99.90
47765;DHT22;33529;49.242;8.670;2022-10-16T02:29:45;16.20;99.90
47765;DHT22;33529;49.242;8.670;2022-10-16T02:32:20;16.20;99.90
47765;DHT22;33529;49.242;8.670;2022-10-16T02:34:49;16.20;99.90
47765;DHT22;33529;49.242;8.670;2022-10-16T02:37:17;16.20;99.90
47765;DHT22;33529;49.242;8.670;2022-10-16T02:39:44;16.20;99.90
47765;DHT22;33529;49.242;8.670;2022-10-16T02:42:14;16.20;99.90
47765;DHT22;33529;49.242;8.670;2022-10-16T02:44:41;16.20;99.90
47765;DHT22;33529;49.242;8.670;2022-10-16T02:47:08;16.20;99.90
47765;DHT22;33529;49.242;8.670;2022-10-16T02:49:35;16.00;99.90
47765;DHT22;33529;49.242;8.670;2022-10-16T02:52:02;15.90;99.90
47765;DHT22;33529;49.242;8.670;2022-10-16T02:54:29;15.90;99.90
47765;DHT22;33529;49.242;8.670;2022-10-16T02:56:56;15.90;99.90
47765;DHT22;33529;49.242;8.670;2022-10-16T02:59:22;15.80;99.90
47765;DHT22;33529;49.242;8.670;2022-10-16T03:01:50;15.80;99.90
47765;DHT22;33529;49.242;8.670;2022-10-16T03:04:17;15.80;99.90
47765;DHT22;33529;49.242;8.670;2022-10-16T03:06:43;15.80;99.90
47765;DHT22;33529;49.242;8.670;2022-10-16T03:09:10;15.80;99.90
47765;DHT22;33529;49.242;8.670;2022-10-16T03:11:37;15.80;99.90
47765;DHT22;33529;49.242;8.670;2022-10-16T03:14:04;15.80;99.90
47765;DHT22;33529;49.242;8.670;2022-10-16T03:16:30;15.80;99.90
47765;DHT22;33529;49.242;8.670;2022-10-16T03:18:57;15.90;99.90
47765;DHT22;33529;49.242;8.670;2022-10-16T03:21:24;15.90;99.90
47765;DHT22;33529;49.242;8.670;2022-10-16T03:23:51;16.00;99.90
47765;DHT22;33529;49.242;8.670;2022-10-16T03:26:18;15.90;99.90
47765;DHT22;33529;49.242;8.670;2022-10-16T03:28:44;15.90;99.90
47765;DHT22;33529;49.242;8.670;2022-10-16T03:31:11;15.90;99.90
47765;DHT22;33529;49.242;8.670;2022-10-16T03:33:38;15.90;99.90
47765;DHT22;33529;49.242;8.670;2022-10-16T03:36:05;15.90;99.90
47765;DHT22;33529;49.242;8.670;2022-10-16T03:38:32;15.80;99.90
47765;DHT22;33529;49.242;8.670;2022-10-16T03:40:59;15.80;99.90
47765;DHT22;33529;49.242;8.670;2022-10-16T03:43:26;15.80;99.90
47765;DHT22;33529;49.242;8.670;2022-10-16T03:45:53;15.80;99.90
47765;DHT22;33529;49.242;8.670;2022-10-16T03:48:19;15.80;99.90
47765;DHT22;33529;49.242;8.670;2022-10-16T03:50:46;15.80;99.90
47765;DHT22;33529;49.242;8.670;2022-10-16T03:53:15;15.80;99.90
47765;DHT22;33529;49.242;8.670;2022-10-16T03:55:42;15.70;99.90
47765;DHT22;33529;49.242;8.670;2022-10-16T03:58:09;15.70;99.90
47765;DHT22;33529;49.242;8.670;2022-10-16T04:00:44;15.70;99.90
47765;DHT22;33529;49.242;8.670;2022-10-16T04:03:11;15.70;99.90
47765;DHT22;33529;49.242;8.670;2022-10-16T04:05:39;15.70;99.90
47765;DHT22;33529;49.242;8.670;2022-10-16T04:08:06;15.70;99.90
47765;DHT22;33529;49.242;8.670;2022-10-16T04:10:32;15.80;99.90
47765;DHT22;33529;49.242;8.670;2022-10-16T04:12:59;15.80;99.90
47765;DHT22;33529;49.242;8.670;2022-10-16T04:15:26;15.90;99.90
47765;DHT22;33529;49.242;8.670;2022-10-16T04:17:53;15.90;99.90
47765;DHT22;33529;49.242;8.670;2022-10-16T04:20:19;15.90;99.90
47765;DHT22;33529;49.242;8.670;2022-10-16T04:22:47;15.90;99.90
47765;DHT22;33529;49.242;8.670;2022-10-16T04:25:13;15.80;99.90
47765;DHT22;33529;49.242;8.670;2022-10-16T04:27:40;15.80;99.90
47765;DHT22;33529;49.242;8.670;2022-10-16T04:30:11;15.80;99.90
47765;DHT22;33529;49.242;8.670;2022-10-16T04:32:39;15.80;99.90
47765;DHT22;33529;49.242;8.670;2022-10-16T04:35:06;15.70;99.90
47765;DHT22;33529;49.242;8.670;2022-10-16T04:37:33;15.70;99.90
47765;DHT22;33529;49.242;8.670;2022-10-16T04:40:00;15.80;99.90
47765;DHT22;33529;49.242;8.670;2022-10-16T04:42:27;15.80;99.90
47765;DHT22;33529;49.242;8.670;2022-10-16T04:44:54;15.80;99.90
47765;DHT22;33529;49.242;8.670;2022-10-16T04:47:21;15.80;99.90
47765;DHT22;33529;49.242;8.670;2022-10-16T04:49:47;15.80;99.90
47765;DHT22;33529;49.242;8.670;2022-10-16T04:52:14;15.90;99.90
47765;DHT22;33529;49.242;8.670;2022-10-16T04:54:41;15.80;99.90
47765;DHT22;33529;49.242;8.670;2022-10-16T04:57:08;15.80;99.90
47765;DHT22;33529;49.242;8.670;2022-10-16T04:59:35;15.80;99.90
47765;DHT22;33529;49.242;8.670;2022-10-16T05:02:02;15.70;99.90
47765;DHT22;33529;49.242;8.670;2022-10-16T05:04:29;15.70;99.90
47765;DHT22;33529;49.242;8.670;2022-10-16T05:06:56;15.70;99.90
47765;DHT22;33529;49.242;8.670;2022-10-16T05:09:22;15.60;99.90
47765;DHT22;33529;49.242;8.670;2022-10-16T05:11:49;15.60;99.90
47765;DHT22;33529;49.242;8.670;2022-10-16T05:14:16;15.60;99.90
47765;DHT22;33529;49.242;8.670;2022-10-16T05:16:43;15.60;99.90
47765;DHT22;33529;49.242;8.670;2022-10-16T05:19:10;15.60;99.90
47765;DHT22;33529;49.242;8.670;2022-10-16T05:21:54;15.60;99.90
47765;DHT22;33529;49.242;8.670;2022-10-16T05:24:21;15.60;99.90
47765;DHT22;33529;49.242;8.670;2022-10-16T05:26:48;15.60;99.90
47765;DHT22;33529;49.242;8.670;2022-10-16T05:29:15;15.60;99.90
47765;DHT22;33529;49.242;8.670;2022-10-16T05:31:41;15.60;99.90
47765;DHT22;33529;49.242;8.670;2022-10-16T05:34:08;15.60;99.90
47765;DHT22;33529;49.242;8.670;2022-10-16T05:36:36;15.60;99.90
47765;DHT22;33529;49.242;8.670;2022-10-16T05:39:03;15.70;99.90
47765;DHT22;33529;49.242;8.670;2022-10-16T05:41:30;15.70;99.90
47765;DHT22;33529;49.242;8.670;2022-10-16T05:43:58;15.60;99.90
47765;DHT22;33529;49.242;8.670;2022-10-16T05:46:25;15.60;99.90
47765;DHT22;33529;49.242;8.670;2022-10-16T05:48:52;15.60;99.90
47765;DHT22;33529;49.242;8.670;2022-10-16T05:51:19;15.70;99.90
47765;DHT22;33529;49.242;8.670;2022-10-16T05:53:46;15.70;99.90
47765;DHT22;33529;49.242;8.670;2022-10-16T05:56:14;15.70;99.90
47765;DHT22;33529;49.242;8.670;2022-10-16T05:58:41;15.70;99.90
47765;DHT22;33529;49.242;8.670;2022-10-16T06:01:14;15.70;99.90
47765;DHT22;33529;49.242;8.670;2022-10-16T06:03:41;15.70;99.90
47765;DHT22;33529;49.242;8.670;2022-10-16T06:08:38;15.60;99.90
47765;DHT22;33529;49.242;8.670;2022-10-16T06:11:08;15.70;99.90
47765;DHT22;33529;49.242;8.670;2022-10-16T06:13:35;15.70;99.90
47765;DHT22;33529;49.242;8.670;2022-10-16T06:16:04;15.70;99.90
47765;DHT22;33529;49.242;8.670;2022-10-16T06:18:31;15.70;99.90
47765;DHT22;33529;49.242;8.670;2022-10-16T06:20:58;15.70;99.90
47765;DHT22;33529;49.242;8.670;2022-10-16T06:23:28;15.70;99.90
47765;DHT22;33529;49.242;8.670;2022-10-16T06:26:11;15.70;99.90
47765;DHT22;33529;49.242;8.670;2022-10-16T06:28:38;15.80;99.90
47765;DHT22;33529;49.242;8.670;2022-10-16T06:31:07;15.70;99.90
47765;DHT22;33529;49.242;8.670;2022-10-16T06:33:35;15.70;99.90
47765;DHT22;33529;49.242;8.670;2022-10-16T06:36:11;15.70;99.90
47765;DHT22;33529;49.242;8.670;2022-10-16T06:38:38;15.70;99.90
47765;DHT22;33529;49.242;8.670;2022-10-16T06:41:06;15.70;99.90
47765;DHT22;33529;49.242;8.670;2022-10-16T06:43:34;15.60;99.90
47765;DHT22;33529;49.242;8.670;2022-10-16T06:46:05;15.60;99.90
47765;DHT22;33529;49.242;8.670;2022-10-16T06:48:34;15.60;99.90
47765;DHT22;33529;49.242;8.670;2022-10-16T06:51:13;15.60;99.90
47765;DHT22;33529;49.242;8.670;2022-10-16T06:53:42;15.60;99.90
47765;DHT22;33529;49.242;8.670;2022-10-16T06:56:27;15.60;99.90
47765;DHT22;33529;49.242;8.670;2022-10-16T06:58:56;15.60;99.90
47765;DHT22;33529;49.242;8.670;2022-10-16T07:01:24;15.60;99.90
47765;DHT22;33529;49.242;8.670;2022-10-16T07:03:52;15.80;99.90
47765;DHT22;33529;49.242;8.670;2022-10-16T07:06:21;15.90;99.90
47765;DHT22;33529;49.242;8.670;2022-10-16T07:08:48;15.90;99.90
47765;DHT22;33529;49.242;8.670;2022-10-16T07:11:17;16.00;99.90
47765;DHT22;33529;49.242;8.670;2022-10-16T07:13:46;16.20;99.90
47765;DHT22;33529;49.242;8.670;2022-10-16T07:16:22;16.20;99.90
47765;DHT22;33529;49.242;8.670;2022-10-16T07:18:49;16.30;99.90
47765;DHT22;33529;49.242;8.670;2022-10-16T07:21:22;16.30;99.90
47765;DHT22;33529;49.242;8.670;2022-10-16T07:23:54;16.40;99.90
47765;DHT22;33529;49.242;8.670;2022-10-16T07:26:22;16.40;99.90
47765;DHT22;33529;49.242;8.670;2022-10-16T07:28:50;16.50;99.90
47765;DHT22;33529;49.242;8.670;2022-10-16T07:31:18;16.60;99.90
47765;DHT22;33529;49.242;8.670;2022-10-16T07:33:47;16.70;99.90
47765;DHT22;33529;49.242;8.670;2022-10-16T07:36:15;16.90;99.90
47765;DHT22;33529;49.242;8.670;2022-10-16T07:38:43;17.00;99.90
47765;DHT22;33529;49.242;8.670;2022-10-16T07:41:18;17.00;99.90
47765;DHT22;33529;49.242;8.670;2022-10-16T07:43:49;17.10;99.90
47765;DHT22;33529;49.242;8.670;2022-10-16T07:46:16;17.10;99.90
47765;DHT22;33529;49.242;8.670;2022-10-16T07:48:43;17.20;99.90
47765;DHT22;33529;49.242;8.670;2022-10-16T07:51:18;17.30;99.90
47765;DHT22;33529;49.242;8.670;2022-10-16T07:53:46;17.40;99.90
47765;DHT22;33529;49.242;8.670;2022-10-16T07:56:13;17.50;99.90
47765;DHT22;33529;49.242;8.670;2022-10-16T07:58:41;17.60;99.90
47765;DHT22;33529;49.242;8.670;2022-10-16T08:01:10;17.70;99.90
47765;DHT22;33529;49.242;8.670;2022-10-16T08:03:37;17.70;99.90
47765;DHT22;33529;49.242;8.670;2022-10-16T08:06:05;17.90;99.90
47765;DHT22;33529;49.242;8.670;2022-10-16T08:08:31;17.90;99.90
47765;DHT22;33529;49.242;8.670;2022-10-16T08:10:59;17.90;99.90
47765;DHT22;33529;49.242;8.670;2022-10-16T08:13:26;17.90;99.90
47765;DHT22;33529;49.242;8.670;2022-10-16T08:15:54;17.90;99.90
47765;DHT22;33529;49.242;8.670;2022-10-16T08:18:21;18.00;99.90
47765;DHT22;33529;49.242;8.670;2022-10-16T08:20:58;18.00;99.90
47765;DHT22;33529;49.242;8.670;2022-10-16T08:23:26;18.10;99.90
47765;DHT22;33529;49.242;8.670;2022-10-16T08:26:02;18.20;99.90
47765;DHT22;33529;49.242;8.670;2022-10-16T08:28:30;18.20;99.90
47765;DHT22;33529;49.242;8.670;2022-10-16T08:31:12;18.20;99.90
47765;DHT22;33529;49.242;8.670;2022-10-16T08:33:41;18.20;99.90
47765;DHT22;33529;49.242;8.670;2022-10-16T08:36:10;18.20;99.90
47765;DHT22;33529;49.242;8.670;2022-10-16T08:38:37;18.30;99.90
47765;DHT22;33529;49.242;8.670;2022-10-16T08:41:29;18.30;99.90
47765;DHT22;33529;49.242;8.670;2022-10-16T08:44:22;18.30;99.90
47765;DHT22;33529;49.242;8.670;2022-10-16T08:49:27;18.40;99.90
47765;DHT22;33529;49.242;8.670;2022-10-16T08:51:55;18.40;99.90
47765;DHT22;33529;49.242;8.670;2022-10-16T08:57:06;18.50;99.90
47765;DHT22;33529;49.242;8.670;2022-10-16T08:59:33;18.50;99.90
47765;DHT22;33529;49.242;8.670;2022-10-16T09:02:00;18.40;99.90
47765;DHT22;33529;49.242;8.670;2022-10-16T09:07:46;18.40;99.90
47765;DHT22;33529;49.242;8.670;2022-10-16T09:10:29;18.50;99.90
47765;DHT22;33529;49.242;8.670;2022-10-16T09:13:14;18.50;99.90
47765;DHT22;33529;49.242;8.670;2022-10-16T09:15:46;18.70;99.90
47765;DHT22;33529;49.242;8.670;2022-10-16T09:21:12;18.70;99.90
47765;DHT22;33529;49.242;8.670;2022-10-16T09:23:41;18.70;99.90
47765;DHT22;33529;49.242;8.670;2022-10-16T09:26:13;18.80;99.90
47765;DHT22;33529;49.242;8.670;2022-10-16T09:28:41;18.90;99.90
47765;DHT22;33529;49.242;8.670;2022-10-16T09:31:16;19.00;99.90
47765;DHT22;33529;49.242;8.670;2022-10-16T09:33:45;18.90;99.90
47765;DHT22;33529;49.242;8.670;2022-10-16T09:36:13;18.90;99.90
47765;DHT22;33529;49.242;8.670;2022-10-16T09:38:41;18.80;99.90
47765;DHT22;33529;49.242;8.670;2022-10-16T09:41:19;18.80;99.90
47765;DHT22;33529;49.242;8.670;2022-10-16T09:44:00;18.90;99.90
47765;DHT22;33529;49.242;8.670;2022-10-16T09:46:31;19.00;99.90
47765;DHT22;33529;49.242;8.670;2022-10-16T09:49:00;19.20;99.90
47765;DHT22;33529;49.242;8.670;2022-10-16T09:51:33;19.30;99.90
47765;DHT22;33529;49.242;8.670;2022-10-16T09:54:11;19.50;99.90
47765;DHT22;33529;49.242;8.670;2022-10-16T09:56:39;19.60;99.90
47765;DHT22;33529;49.242;8.670;2022-10-16T09:59:17;19.80;99.90
47765;DHT22;33529;49.242;8.670;2022-10-16T10:01:51;20.00;99.90
47765;DHT22;33529;49.242;8.670;2022-10-16T10:04:20;19.90;99.90
47765;DHT22;33529;49.242;8.670;2022-10-16T10:06:48;20.10;99.90
47765;DHT22;33529;49.242;8.670;2022-10-16T10:09:16;20.10;99.90
47765;DHT22;33529;49.242;8.670;2022-10-16T10:14:18;20.50;99.90
47765;DHT22;33529;49.242;8.670;2022-10-16T10:16:46;20.60;99.90
47765;DHT22;33529;49.242;8.670;2022-10-16T10:19:20;20.70;99.90
47765;DHT22;33529;49.242;8.670;2022-10-16T10:21:48;20.80;99.90
47765;DHT22;33529;49.242;8.670;2022-10-16T10:24:17;20.80;99.90
47765;DHT22;33529;49.242;8.670;2022-10-16T10:26:54;20.90;99.90
47765;DHT22;33529;49.242;8.670;2022-10-16T10:35:38;21.10;99.90
47765;DHT22;33529;49.242;8.670;2022-10-16T10:38:20;21.00;99.90
47765;DHT22;33529;49.242;8.670;2022-10-16T10:41:04;20.80;99.90
47765;DHT22;33529;49.242;8.670;2022-10-16T10:47:13;20.70;99.90
47765;DHT22;33529;49.242;8.670;2022-10-16T10:49:52;20.80;99.90
47765;DHT22;33529;49.242;8.670;2022-10-16T11:01:04;20.60;99.90
47765;DHT22;33529;49.242;8.670;2022-10-16T11:03:46;20.50;99.90
47765;DHT22;33529;49.242;8.670;2022-10-16T11:06:35;20.40;99.90
47765;DHT22;33529;49.242;8.670;2022-10-16T11:09:24;20.40;99.90
47765;DHT22;33529;49.242;8.670;2022-10-16T11:12:12;20.50;99.90
47765;DHT22;33529;49.242;8.670;2022-10-16T11:15:17;20.60;99.90
47765;DHT22;33529;49.242;8.670;2022-10-16T11:17:49;20.70;99.90
47765;DHT22;33529;49.242;8.670;2022-10-16T11:20:21;20.70;99.90
47765;DHT22;33529;49.242;8.670;2022-10-16T11:25:34;20.90;99.90
47765;DHT22;33529;49.242;8.670;2022-10-16T11:28:15;21.00;99.90
47765;DHT22;33529;49.242;8.670;2022-10-16T11:36:23;21.30;99.90
47765;DHT22;33529;49.242;8.670;2022-10-16T11:49:59;21.20;99.90
47765;DHT22;33529;49.242;8.670;2022-10-16T11:52:41;21.20;99.90
47765;DHT22;33529;49.242;8.670;2022-10-16T11:55:15;21.30;99.90
47765;DHT22;33529;49.242;8.670;2022-10-16T11:57:49;21.40;99.90
47765;DHT22;33529;49.242;8.670;2022-10-16T12:03:27;21.70;99.90
47765;DHT22;33529;49.242;8.670;2022-10-16T12:06:13;21.70;99.90
47765;DHT22;33529;49.242;8.670;2022-10-16T12:08:42;21.80;99.90
47765;DHT22;33529;49.242;8.670;2022-10-16T12:11:32;21.80;99.90
47765;DHT22;33529;49.242;8.670;2022-10-16T12:16:50;21.90;99.90
47765;DHT22;33529;49.242;8.670;2022-10-16T12:19:17;22.00;99.90
47765;DHT22;33529;49.242;8.670;2022-10-16T12:21:45;22.10;99.90
47765;DHT22;33529;49.242;8.670;2022-10-16T12:24:38;22.00;99.90
47765;DHT22;33529;49.242;8.670;2022-10-16T12:27:30;22.10;99.90
47765;DHT22;33529;49.242;8.670;2022-10-16T12:29:59;22.30;99.90
47765;DHT22;33529;49.242;8.670;2022-10-16T12:32:33;22.30;99.90
47765;DHT22;33529;49.242;8.670;2022-10-16T12:35:20;22.40;99.90
47765;DHT22;33529;49.242;8.670;2022-10-16T12:37:48;22.20;99.90
47765;DHT22;33529;49.242;8.670;2022-10-16T12:40:30;22.40;99.90
47765;DHT22;33529;49.242;8.670;2022-10-16T12:42:57;22.40;99.90
47765;DHT22;33529;49.242;8.670;2022-10-16T12:47:55;22.60;99.90
47765;DHT22;33529;49.242;8.670;2022-10-16T12:50:25;22.50;99.90
47765;DHT22;33529;49.242;8.670;2022-10-16T12:52:52;22.40;99.90
47765;DHT22;33529;49.242;8.670;2022-10-16T12:55:21;22.30;99.90
47765;DHT22;33529;49.242;8.670;2022-10-16T12:58:00;22.10;99.90
47765;DHT22;33529;49.242;8.670;2022-10-16T13:00:45;21.90;99.90
47765;DHT22;33529;49.242;8.670;2022-10-16T13:03:28;22.10;99.90
47765;DHT22;33529;49.242;8.670;2022-10-16T13:15:12;22.20;99.90
47765;DHT22;33529;49.242;8.670;2022-10-16T13:28:08;22.10;99.90
47765;DHT22;33529;49.242;8.670;2022-10-16T13:31:05;21.90;99.90
47765;DHT22;33529;49.242;8.670;2022-10-16T13:33:39;21.80;99.90
47765;DHT22;33529;49.242;8.670;2022-10-16T13:36:22;21.60;99.90
47765;DHT22;33529;49.242;8.670;2022-10-16T13:41:32;21.40;99.90
47765;DHT22;33529;49.242;8.670;2022-10-16T13:43:59;21.20;99.90
47765;DHT22;33529;49.242;8.670;2022-10-16T13:46:26;21.00;99.90
47765;DHT22;33529;49.242;8.670;2022-10-16T13:48:57;20.90;99.90
47765;DHT22;33529;49.242;8.670;2022-10-16T13:51:25;20.90;99.90
47765;DHT22;33529;49.242;8.670;2022-10-16T13:53:52;20.90;99.90
47765;DHT22;33529;49.242;8.670;2022-10-16T13:56:22;20.90;99.90
47765;DHT22;33529;49.242;8.670;2022-10-16T13:59:06;20.90;99.90
47765;DHT22;33529;49.242;8.670;2022-10-16T14:01:35;20.80;99.90
47765;DHT22;33529;49.242;8.670;2022-10-16T14:04:08;20.80;99.90
47765;DHT22;33529;49.242;8.670;2022-10-16T14:06:36;20.80;99.90
47765;DHT22;33529;49.242;8.670;2022-10-16T14:11:50;20.60;99.90
47765;DHT22;33529;49.242;8.670;2022-10-16T14:14:19;20.70;99.90
47765;DHT22;33529;49.242;8.670;2022-10-16T14:16:46;20.70;99.90
47765;DHT22;33529;49.242;8.670;2022-10-16T14:19:26;20.60;99.90
47765;DHT22;33529;49.242;8.670;2022-10-16T14:21:54;20.60;99.90
47765;DHT22;33529;49.242;8.670;2022-10-16T14:26:56;20.50;99.90
47765;DHT22;33529;49.242;8.670;2022-10-16T14:29:25;20.40;99.90
47765;DHT22;33529;49.242;8.670;2022-10-16T14:32:01;20.40;99.90
47765;DHT22;33529;49.242;8.670;2022-10-16T14:37:08;20.30;99.90
47765;DHT22;33529;49.242;8.670;2022-10-16T14:39:40;20.30;99.90
47765;DHT22;33529;49.242;8.670;2022-10-16T14:42:18;20.20;99.90
47765;DHT22;33529;49.242;8.670;2022-10-16T14:44:46;20.10;99.90
47765;DHT22;33529;49.242;8.670;2022-10-16T14:47:15;20.10;99.90
47765;DHT22;33529;49.242;8.670;2022-10-16T14:49:43;20.10;99.90
47765;DHT22;33529;49.242;8.670;2022-10-16T14:52:11;20.00;99.90
47765;DHT22;33529;49.242;8.670;2022-10-16T14:54:39;20.10;99.90
47765;DHT22;33529;49.242;8.670;2022-10-16T14:57:16;20.10;99.90
47765;DHT22;33529;49.242;8.670;2022-10-16T14:59:45;20.20;99.90
47765;DHT22;33529;49.242;8.670;2022-10-16T15:04:49;20.50;99.90
47765;DHT22;33529;49.242;8.670;2022-10-16T15:07:16;20.60;99.90
47765;DHT22;33529;49.242;8.670;2022-10-16T15:09:42;20.80;99.90
47765;DHT22;33529;49.242;8.670;2022-10-16T15:12:15;20.80;99.90
47765;DHT22;33529;49.242;8.670;2022-10-16T15:14:42;20.80;99.90
47765;DHT22;33529;49.242;8.670;2022-10-16T15:17:10;20.80;99.90
47765;DHT22;33529;49.242;8.670;2022-10-16T15:19:37;20.60;99.90
47765;DHT22;33529;49.242;8.670;2022-10-16T15:22:04;20.50;99.90
47765;DHT22;33529;49.242;8.670;2022-10-16T15:24:31;20.40;99.90
47765;DHT22;33529;49.242;8.670;2022-10-16T15:26:58;20.30;99.90
47765;DHT22;33529;49.242;8.670;2022-10-16T15:29:24;20.30;99.90
47765;DHT22;33529;49.242;8.670;2022-10-16T15:31:51;20.20;99.90
47765;DHT22;33529;49.242;8.670;2022-10-16T15:34:18;20.10;99.90
47765;DHT22;33529;49.242;8.670;2022-10-16T15:36:46;20.10;99.90
47765;DHT22;33529;49.242;8.670;2022-10-16T15:39:15;20.00;99.90
47765;DHT22;33529;49.242;8.670;2022-10-16T15:41:43;19.90;99.90
47765;DHT22;33529;49.242;8.670;2022-10-16T15:44:10;19.90;99.90
47765;DHT22;33529;49.242;8.670;2022-10-16T15:46:36;19.80;99.90
47765;DHT22;33529;49.242;8.670;2022-10-16T15:49:04;19.80;99.90
47765;DHT22;33529;49.242;8.670;2022-10-16T15:51:30;19.80;99.90
47765;DHT22;33529;49.242;8.670;2022-10-16T15:53:59;19.80;99.90
47765;DHT22;33529;49.242;8.670;2022-10-16T15:56:28;19.70;99.90
47765;DHT22;33529;49.242;8.670;2022-10-16T15:58:57;19.70;99.90
47765;DHT22;33529;49.242;8.670;2022-10-16T16:01:25;19.70;99.90
47765;DHT22;33529;49.242;8.670;2022-10-16T16:03:53;19.60;99.90
47765;DHT22;33529;49.242;8.670;2022-10-16T16:06:21;19.60;99.90
47765;DHT22;33529;49.242;8.670;2022-10-16T16:08:48;19.60;99.90
47765;DHT22;33529;49.242;8.670;2022-10-16T16:11:16;19.50;99.90
47765;DHT22;33529;49.242;8.670;2022-10-16T16:13:44;19.40;99.90
47765;DHT22;33529;49.242;8.670;2022-10-16T16:16:13;19.20;99.90
47765;DHT22;33529;49.242;8.670;2022-10-16T16:18:41;19.20;99.90
47765;DHT22;33529;49.242;8.670;2022-10-16T16:21:11;19.00;99.90
47765;DHT22;33529;49.242;8.670;2022-10-16T16:23:38;18.90;99.90
47765;DHT22;33529;49.242;8.670;2022-10-16T16:26:22;18.90;99.90
47765;DHT22;33529;49.242;8.670;2022-10-16T16:28:54;18.80;99.90
47765;DHT22;33529;49.242;8.670;2022-10-16T16:31:26;18.70;99.90
47765;DHT22;33529;49.242;8.670;2022-10-16T16:33:53;18.60;99.90
47765;DHT22;33529;49.242;8.670;2022-10-16T16:36:20;18.60;99.90
47765;DHT22;33529;49.242;8.670;2022-10-16T16:38:47;18.50;99.90
47765;DHT22;33529;49.242;8.670;2022-10-16T16:41:23;18.50;99.90
47765;DHT22;33529;49.242;8.670;2022-10-16T16:43:52;18.30;99.90
47765;DHT22;33529;49.242;8.670;2022-10-16T16:46:20;18.20;99.90
47765;DHT22;33529;49.242;8.670;2022-10-16T16:48:47;18.20;99.90
47765;DHT22;33529;49.242;8.670;2022-10-16T16:51:17;18.10;99.90
47765;DHT22;33529;49.242;8.670;2022-10-16T16:53:48;18.00;99.90
47765;DHT22;33529;49.242;8.670;2022-10-16T16:56:16;18.00;99.90
47765;DHT22;33529;49.242;8.670;2022-10-16T16:58:48;17.90;99.90
47765;DHT22;33529;49.242;8.670;2022-10-16T17:01:15;17.70;99.90
47765;DHT22;33529;49.242;8.670;2022-10-16T17:03:47;17.60;99.90
47765;DHT22;33529;49.242;8.670;2022-10-16T17:06:17;17.60;99.90
47765;DHT22;33529;49.242;8.670;2022-10-16T17:08:47;17.60;99.90
47765;DHT22;33529;49.242;8.670;2022-10-16T17:11:20;17.60;99.90
47765;DHT22;33529;49.242;8.670;2022-10-16T17:13:49;17.60;99.90
47765;DHT22;33529;49.242;8.670;2022-10-16T17:16:28;17.60;99.90
47765;DHT22;33529;49.242;8.670;2022-10-16T17:18:59;17.60;99.90
47765;DHT22;33529;49.242;8.670;2022-10-16T17:21:26;17.50;99.90
47765;DHT22;33529;49.242;8.670;2022-10-16T17:23:56;17.50;99.90
47765;DHT22;33529;49.242;8.670;2022-10-16T17:26:23;17.50;99.90
47765;DHT22;33529;49.242;8.670;2022-10-16T17:28:52;17.40;99.90
47765;DHT22;33529;49.242;8.670;2022-10-16T17:31:22;17.30;99.90
47765;DHT22;33529;49.242;8.670;2022-10-16T17:33:51;17.30;99.90
47765;DHT22;33529;49.242;8.670;2022-10-16T17:36:19;17.20;99.90
47765;DHT22;33529;49.242;8.670;2022-10-16T17:38:46;17.10;99.90
47765;DHT22;33529;49.242;8.670;2022-10-16T17:41:16;16.90;99.90
47765;DHT22;33529;49.242;8.670;2022-10-16T17:43:44;16.90;99.90